createdAt,value
2022-10-17T00:00:41.220Z,4.63
2022-10-17T00:03:07.823Z,4.57
2022-10-17T00:05:34.984Z,5.10
2022-10-17T00:08:01.608Z,3.97
2022-10-17T00:10:28.193Z,3.47
2022-10-17T00:12:54.750Z,3.80
2022-10-17T00:15:22.593Z,3.23
2022-10-17T00:17:49.343Z,2.67
2022-10-17T00:20:16.325Z,3.13
2022-10-17T00:22:43.189Z,3.27
2022-10-17T00:25:10.292Z,3.47
2022-10-17T00:27:38.662Z,3.80
2022-10-17T00:30:06.971Z,3.10
2022-10-17T00:32:33.580Z,2.63
2022-10-17T00:35:00.253Z,2.53
2022-10-17T00:37:26.918Z,3.03
2022-10-17T00:39:54.258Z,2.57
2022-10-17T00:42:21.096Z,3.33
2022-10-17T00:44:47.713Z,2.60
2022-10-17T00:47:17.268Z,3.00
2022-10-17T00:49:43.947Z,2.80
2022-10-17T00:52:15.962Z,3.13
2022-10-17T00:54:48.737Z,3.07
2022-10-17T00:57:16.899Z,2.93
2022-10-17T00:59:44.941Z,3.83
2022-10-17T01:02:14.366Z,4.60
2022-10-17T01:04:43.004Z,3.40
2022-10-17T01:07:10.019Z,3.13
2022-10-17T01:09:37.003Z,2.40
2022-10-17T01:12:19.054Z,2.47
2022-10-17T01:15:13.602Z,2.23
2022-10-17T01:17:51.118Z,1.90
2022-10-17T01:21:00.271Z,2.70
2022-10-17T01:23:45.696Z,1.73
2022-10-17T01:26:30.829Z,2.60
2022-10-17T01:29:15.576Z,2.10
2022-10-17T01:32:01.426Z,2.77
2022-10-17T01:34:35.980Z,2.73
2022-10-17T01:37:14.976Z,2.87
2022-10-17T01:39:54.870Z,3.90
2022-10-17T01:42:35.711Z,2.60
2022-10-17T01:45:10.188Z,3.27
2022-10-17T01:47:36.940Z,4.90
2022-10-17T01:50:20.593Z,3.67
2022-10-17T01:52:52.113Z,3.73
2022-10-17T01:55:21.618Z,4.10
2022-10-17T01:57:55.206Z,2.60
2022-10-17T02:00:24.149Z,3.93
2022-10-17T02:02:58.481Z,3.30
2022-10-17T02:05:31.413Z,6.00
2022-10-17T02:07:58.068Z,7.93
2022-10-17T02:10:43.987Z,5.90
2022-10-17T02:13:25.730Z,2.77
2022-10-17T02:16:16.944Z,3.97
2022-10-17T02:19:04.495Z,3.43
2022-10-17T02:21:37.079Z,3.20
2022-10-17T02:24:36.952Z,2.63
2022-10-17T02:27:09.077Z,2.60
2022-10-17T02:29:45.030Z,2.60
2022-10-17T02:32:24.049Z,3.03
2022-10-17T02:34:53.061Z,2.03
2022-10-17T02:37:23.124Z,3.23
2022-10-17T02:39:58.109Z,2.52
2022-10-17T02:42:25.458Z,2.97
2022-10-17T02:44:52.767Z,2.50
2022-10-17T02:47:23.595Z,2.40
2022-10-17T02:49:52.027Z,3.57
2022-10-17T02:52:30.710Z,2.87
2022-10-17T02:55:07.376Z,2.57
2022-10-17T02:57:37.928Z,2.83
2022-10-17T03:00:07.923Z,3.17
2022-10-17T03:02:51.840Z,2.60
2022-10-17T03:05:20.934Z,2.13
2022-10-17T03:07:47.622Z,3.07
2022-10-17T03:10:14.377Z,2.60
2022-10-17T03:12:40.927Z,2.97
2022-10-17T03:15:07.942Z,3.10
2022-10-17T03:17:36.076Z,3.60
2022-10-17T03:20:03.229Z,3.63
2022-10-17T03:22:30.063Z,4.37
2022-10-17T03:24:56.812Z,4.50
2022-10-17T03:27:23.358Z,4.37
2022-10-17T03:29:49.907Z,4.07
2022-10-17T03:32:16.625Z,3.00
2022-10-17T03:34:43.182Z,3.00
2022-10-17T03:37:09.798Z,4.40
2022-10-17T03:39:36.370Z,3.67
2022-10-17T03:42:02.915Z,3.20
2022-10-17T03:44:29.446Z,2.87
2022-10-17T03:46:57.588Z,3.17
2022-10-17T03:49:24.165Z,4.10
2022-10-17T03:51:50.746Z,4.47
2022-10-17T03:54:17.299Z,3.33
2022-10-17T03:56:44.023Z,3.60
2022-10-17T03:59:14.807Z,4.13
2022-10-17T04:01:41.664Z,4.10
2022-10-17T04:04:08.685Z,4.03
2022-10-17T04:06:36.247Z,3.00
2022-10-17T04:09:03.331Z,3.10
2022-10-17T04:11:29.916Z,2.93
2022-10-17T04:13:57.571Z,2.13
2022-10-17T04:16:24.518Z,3.10
2022-10-17T04:18:56.005Z,2.47
2022-10-17T04:21:24.805Z,3.17
2022-10-17T04:23:55.468Z,4.17
2022-10-17T04:26:22.230Z,4.27
2022-10-17T04:28:49.461Z,3.97
2022-10-17T04:31:16.317Z,3.20
2022-10-17T04:33:43.097Z,3.80
2022-10-17T04:36:14.477Z,2.80
2022-10-17T04:38:41.325Z,2.57
2022-10-17T04:41:11.144Z,3.50
2022-10-17T04:43:39.031Z,2.27
2022-10-17T04:46:08.300Z,2.87
2022-10-17T04:48:34.934Z,3.47
2022-10-17T04:51:11.106Z,4.73
2022-10-17T04:53:38.495Z,3.90
2022-10-17T04:56:24.905Z,3.87
2022-10-17T04:58:51.909Z,4.97
2022-10-17T05:01:20.950Z,5.87
2022-10-17T05:03:48.124Z,7.10
2022-10-17T05:06:20.099Z,7.00
2022-10-17T05:08:46.971Z,6.13
2022-10-17T05:11:24.602Z,7.03
2022-10-17T05:14:02.328Z,6.67
2022-10-17T05:16:29.519Z,7.33
2022-10-17T05:18:57.345Z,8.33
2022-10-17T05:21:25.119Z,8.30
2022-10-17T05:23:51.911Z,7.73
2022-10-17T05:26:18.858Z,8.97
2022-10-17T05:28:45.652Z,9.43
2022-10-17T05:31:12.745Z,8.10
2022-10-17T05:33:40.175Z,7.10
2022-10-17T05:36:07.368Z,6.70
2022-10-17T05:38:34.212Z,6.33
2022-10-17T05:41:02.244Z,5.97
2022-10-17T05:43:29.560Z,7.60
2022-10-17T05:45:56.498Z,6.07
2022-10-17T05:48:24.003Z,5.83
2022-10-17T05:50:50.563Z,5.93
2022-10-17T05:53:17.569Z,5.83
2022-10-17T05:55:44.157Z,6.90
2022-10-17T05:58:17.685Z,6.97
2022-10-17T06:00:49.113Z,6.97
2022-10-17T06:03:15.731Z,6.90
2022-10-17T06:05:42.313Z,7.03
2022-10-17T06:08:09.010Z,6.80
2022-10-17T06:10:35.572Z,7.43
2022-10-17T06:13:02.119Z,7.80
2022-10-17T06:15:28.709Z,7.63
2022-10-17T06:17:55.267Z,7.63
2022-10-17T06:20:21.825Z,8.37
2022-10-17T06:22:59.477Z,7.10
2022-10-17T06:25:26.039Z,9.77
2022-10-17T06:30:20.137Z,7.13
2022-10-17T06:32:46.740Z,7.73
2022-10-17T06:35:13.357Z,5.67
2022-10-17T06:37:40.211Z,8.77
2022-10-17T06:40:09.109Z,6.73
2022-10-17T06:42:35.686Z,6.37
2022-10-17T06:45:02.253Z,4.57
2022-10-17T06:47:28.990Z,4.53
2022-10-17T06:49:55.681Z,4.37
2022-10-17T06:52:22.261Z,4.40
2022-10-17T06:54:48.817Z,4.30
2022-10-17T06:57:15.399Z,4.33
2022-10-17T06:59:41.956Z,4.57
2022-10-17T07:02:09.992Z,3.57
2022-10-17T07:04:36.555Z,5.30
2022-10-17T07:07:03.438Z,5.03
2022-10-17T07:09:31.301Z,4.40
2022-10-17T07:11:57.928Z,4.90
2022-10-17T07:14:31.816Z,5.40
2022-10-17T07:16:59.380Z,4.17
2022-10-17T07:19:27.149Z,4.77
2022-10-17T07:21:54.287Z,4.73
2022-10-17T07:24:20.908Z,3.47
2022-10-17T07:26:47.617Z,3.97
2022-10-17T07:29:14.238Z,3.23
2022-10-17T07:31:40.820Z,4.33
2022-10-17T07:34:07.408Z,3.85
2022-10-17T07:36:34.042Z,4.53
2022-10-17T07:39:00.586Z,4.27
2022-10-17T07:41:27.887Z,3.23
2022-10-17T07:43:54.481Z,3.83
2022-10-17T07:46:21.091Z,4.13
2022-10-17T07:48:47.660Z,3.83
2022-10-17T07:51:14.287Z,3.33
2022-10-17T07:53:42.785Z,2.83
2022-10-17T07:56:12.164Z,3.00
2022-10-17T07:58:38.978Z,4.10
2022-10-17T08:01:10.774Z,3.00
2022-10-17T08:08:37.189Z,2.53
2022-10-17T08:11:06.544Z,3.00
2022-10-17T08:13:33.663Z,3.20
2022-10-17T08:16:05.136Z,2.63
2022-10-17T08:18:31.844Z,4.03
2022-10-17T08:21:06.194Z,2.63
2022-10-17T08:23:32.910Z,3.10
2022-10-17T08:26:02.722Z,3.03
2022-10-17T08:28:29.592Z,2.90
2022-10-17T08:31:08.396Z,2.83
2022-10-17T08:33:35.256Z,3.63
2022-10-17T08:36:02.428Z,4.00
2022-10-17T08:38:34.655Z,2.80
2022-10-17T08:41:04.955Z,3.20
2022-10-17T08:44:00.060Z,3.13
2022-10-17T08:46:32.050Z,3.50
2022-10-17T08:48:59.276Z,2.80
2022-10-17T08:51:29.760Z,2.93
2022-10-17T08:54:00.587Z,2.50
2022-10-17T08:56:49.614Z,3.17
2022-10-17T09:12:41.826Z,2.67
2022-10-17T09:15:30.217Z,2.77
2022-10-17T09:18:10.095Z,2.73
2022-10-17T09:21:20.135Z,2.43
2022-10-17T09:24:03.823Z,2.13
2022-10-17T09:26:35.937Z,2.60
2022-10-17T09:29:02.604Z,2.90
2022-10-17T09:31:42.259Z,2.23
2022-10-17T09:34:10.052Z,2.37
2022-10-17T16:31:24.270Z,18.40
2022-10-17T18:04:35.485Z,3.27
2022-10-17T18:07:02.053Z,5.13
2022-10-17T18:09:28.603Z,3.17
2022-10-17T18:11:55.430Z,4.87
2022-10-17T18:14:23.943Z,3.50
2022-10-17T18:16:50.761Z,3.00
2022-10-17T18:19:17.366Z,4.23
2022-10-17T18:21:44.427Z,3.57
2022-10-17T18:24:11.044Z,2.93
2022-10-17T18:26:37.640Z,3.10
2022-10-17T18:29:04.451Z,2.37
2022-10-17T18:31:35.991Z,2.00
2022-10-17T18:34:03.187Z,2.70
2022-10-17T18:36:31.137Z,2.97
2022-10-17T18:38:59.312Z,3.63
2022-10-17T18:41:26.939Z,2.47
2022-10-17T18:43:54.773Z,2.93
2022-10-17T18:46:23.520Z,3.17
2022-10-17T18:48:50.859Z,5.43
2022-10-17T18:51:19.955Z,5.07
2022-10-17T18:53:49.389Z,2.93
2022-10-17T18:56:16.923Z,2.50
2022-10-17T18:58:43.539Z,3.00
2022-10-17T19:01:15.516Z,2.33
2022-10-17T19:03:43.638Z,3.00
2022-10-17T19:06:11.730Z,1.97
2022-10-17T19:08:39.148Z,1.97
2022-10-17T19:11:17.007Z,2.10
2022-10-17T19:16:18.978Z,2.23
2022-10-17T19:18:50.569Z,6.50
2022-10-17T19:21:21.656Z,7.27
2022-10-17T19:24:02.645Z,3.00
2022-10-17T19:26:31.632Z,2.43
2022-10-17T19:29:00.466Z,1.77
2022-10-17T19:31:28.776Z,2.50
2022-10-17T19:33:56.382Z,2.37
2022-10-17T19:41:20.326Z,2.33
2022-10-17T19:43:46.906Z,2.23
2022-10-17T19:46:18.964Z,2.83
2022-10-17T19:48:45.730Z,3.90
2022-10-17T19:51:14.555Z,3.63
2022-10-17T19:58:45.175Z,2.97
2022-10-17T20:01:20.203Z,4.27
2022-10-17T20:03:47.537Z,2.80
2022-10-17T20:06:14.744Z,2.57
2022-10-17T20:08:41.557Z,1.90
2022-10-17T20:11:11.775Z,2.33
2022-10-17T20:13:38.853Z,2.67
2022-10-17T20:16:06.696Z,3.37
2022-10-17T20:18:34.238Z,6.73
2022-10-17T20:21:06.482Z,8.30
2022-10-17T20:23:33.383Z,7.63
2022-10-17T20:26:26.050Z,6.20
2022-10-17T20:28:58.019Z,8.50
2022-10-17T20:31:24.819Z,6.87
2022-10-17T20:33:57.654Z,1.90
2022-10-17T20:36:25.363Z,2.47
2022-10-17T20:38:56.040Z,3.80
2022-10-17T20:41:23.075Z,2.17
2022-10-17T20:43:53.803Z,2.53
2022-10-17T20:46:35.425Z,7.33
2022-10-17T20:49:03.027Z,7.90
2022-10-17T20:51:29.748Z,3.97
2022-10-17T20:56:29.947Z,2.87
2022-10-17T20:58:59.247Z,3.07
2022-10-17T21:01:26.821Z,2.90
2022-10-17T21:03:53.809Z,2.10
2022-10-17T21:06:21.159Z,4.60
2022-10-17T21:08:48.412Z,2.47
2022-10-17T21:11:16.041Z,2.63
2022-10-17T21:13:42.852Z,3.93
2022-10-17T21:16:28.623Z,4.53
2022-10-17T21:18:55.965Z,4.40
2022-10-17T21:55:52.192Z,4.63
2022-10-17T21:58:19.828Z,3.83
2022-10-17T22:00:46.400Z,5.73
2022-10-17T22:03:15.165Z,4.37
2022-10-17T22:05:41.718Z,3.10
2022-10-17T22:08:08.336Z,4.90
2022-10-17T22:10:38.015Z,4.53
2022-10-17T22:13:04.892Z,4.97
2022-10-17T22:15:31.590Z,3.70
2022-10-17T22:17:58.201Z,3.53
2022-10-17T22:20:24.841Z,2.67
2022-10-17T22:22:51.424Z,3.70
2022-10-17T22:25:18.016Z,5.17
2022-10-17T22:27:44.587Z,4.30
2022-10-17T22:30:11.685Z,4.43
2022-10-17T22:32:38.254Z,3.57
2022-10-17T22:35:05.211Z,3.53
2022-10-17T22:37:32.075Z,3.30
2022-10-17T22:39:58.808Z,5.00
2022-10-17T22:42:25.447Z,4.53
2022-10-17T22:44:52.115Z,5.13
2022-10-17T22:47:18.658Z,3.93
2022-10-17T22:49:45.230Z,3.97
2022-10-17T22:52:11.887Z,4.13
2022-10-17T22:54:38.467Z,5.50
2022-10-17T22:57:05.060Z,3.90
2022-10-17T22:59:31.608Z,3.70
2022-10-17T23:01:58.240Z,4.43
2022-10-17T23:04:24.901Z,3.47
2022-10-17T23:06:51.501Z,3.03
2022-10-17T23:09:18.141Z,2.83
2022-10-17T23:11:44.790Z,2.73
2022-10-17T23:14:11.380Z,3.13
2022-10-17T23:16:37.921Z,2.67
2022-10-17T23:19:04.476Z,3.17
2022-10-17T23:21:31.078Z,3.60
2022-10-17T23:24:07.481Z,4.37
2022-10-17T23:26:34.051Z,5.03
2022-10-17T23:29:00.745Z,4.20
2022-10-17T23:31:27.449Z,3.37
2022-10-17T23:33:54.285Z,2.23
2022-10-17T23:36:21.368Z,2.60
2022-10-17T23:38:48.777Z,3.07
2022-10-17T23:41:16.113Z,2.57
2022-10-17T23:43:43.399Z,3.23
2022-10-17T23:46:10.217Z,2.73
2022-10-17T23:48:38.527Z,2.73
2022-10-17T23:51:06.048Z,2.43
2022-10-17T23:53:32.755Z,2.93
2022-10-17T23:55:59.310Z,2.70
2022-10-17T23:58:25.941Z,2.97
